Time;durP1;ratioP1;P1;durP2;ratioP2;P2;SDS_P1;SDS_P2;PMS_P1;PMS_P2;Temp;Humidity;BMP_temperature;BMP_pressure;BME280_temperature;BME280_humidity;BME280_pressure;Samples;Min_cycle;Max_cycle;Signal;HPM_P1;HPM_P2
2023/07/17 00:00:53;;;;;;;18.55;6.13;;;15.60;99.90;;;;;;4988743;28;20490;-56
2023/07/17 00:03:20;;;;;;;20.90;5.97;;;15.60;99.90;;;;;;4985465;28;20528;-52
2023/07/17 00:05:47;;;;;;;19.70;6.25;;;15.60;99.90;;;;;;4976808;28;20061;-56
2023/07/17 00:08:14;;;;;;;20.77;5.78;;;15.60;99.90;;;;;;4987553;28;20141;-53
2023/07/17 00:10:41;;;;;;;13.88;5.60;;;15.60;99.90;;;;;;4982479;28;20062;-55
2023/07/17 00:13:08;;;;;;;19.02;5.28;;;15.60;99.90;;;;;;4988523;28;20046;-52
2023/07/17 00:15:34;;;;;;;14.27;6.10;;;15.50;99.90;;;;;;4988529;28;20524;-53
2023/07/17 00:18:01;;;;;;;13.43;5.50;;;15.50;99.90;;;;;;4986981;28;20513;-53
2023/07/17 00:20:28;;;;;;;19.35;5.72;;;15.50;99.90;;;;;;4984930;28;20061;-56
2023/07/17 00:22:55;;;;;;;10.88;5.32;;;15.60;99.90;;;;;;4986645;28;20038;-54
2023/07/17 00:25:22;;;;;;;18.77;6.03;;;15.60;99.90;;;;;;4640995;28;10000464;-53
2023/07/17 00:27:49;;;;;;;15.38;7.05;;;15.60;99.90;;;;;;4981219;28;20042;-56
2023/07/17 00:30:16;;;;;;;15.75;6.28;;;15.60;99.90;;;;;;4981140;28;20074;-55
2023/07/17 00:32:43;;;;;;;12.75;4.93;;;15.50;99.90;;;;;;4987201;28;20042;-57
2023/07/17 00:35:09;;;;;;;13.13;6.30;;;15.50;99.90;;;;;;4987089;28;20050;-56
2023/07/17 00:37:36;;;;;;;13.23;5.07;;;15.50;99.90;;;;;;4988781;28;20073;-56
2023/07/17 00:40:09;;;;;;;12.82;5.65;;;15.40;99.90;;;;;;4982230;28;20046;-56
2023/07/17 00:42:36;;;;;;;10.63;4.55;;;15.40;99.90;;;;;;4980111;28;20057;-57
2023/07/17 00:45:05;;;;;;;14.00;4.88;;;15.40;99.90;;;;;;4974574;28;20054;-55
2023/07/17 00:47:32;;;;;;;20.92;5.20;;;15.40;99.90;;;;;;4977541;28;20053;-53
2023/07/17 00:50:00;;;;;;;16.63;4.55;;;15.30;99.90;;;;;;4982936;28;20043;-56
2023/07/17 00:52:27;;;;;;;17.02;5.20;;;15.20;99.90;;;;;;4985356;28;20070;-55
2023/07/17 00:54:54;;;;;;;14.25;5.00;;;15.30;99.90;;;;;;4975794;28;20146;-54
2023/07/17 00:57:21;;;;;;;14.77;6.90;;;15.20;99.90;;;;;;4988730;28;20046;-58
2023/07/17 00:59:48;;;;;;;12.50;4.97;;;15.20;99.90;;;;;;4991989;28;20405;-56
2023/07/17 01:02:14;;;;;;;13.93;4.55;;;15.10;99.90;;;;;;4990643;28;20050;-53
2023/07/17 01:04:45;;;;;;;9.32;4.25;;;15.00;99.90;;;;;;4990609;28;20057;-56
2023/07/17 01:07:13;;;;;;;14.48;5.60;;;15.10;99.90;;;;;;4988836;28;20510;-53
2023/07/17 01:09:40;;;;;;;9.73;4.00;;;15.10;99.90;;;;;;4991783;28;20053;-56
2023/07/17 01:12:08;;;;;;;14.85;4.82;;;15.20;99.90;;;;;;4987855;28;20133;-55
2023/07/17 01:14:34;;;;;;;10.25;4.50;;;15.10;99.90;;;;;;4992231;28;20042;-55
2023/07/17 01:17:01;;;;;;;11.00;4.75;;;15.10;99.90;;;;;;4987836;28;20039;-55
2023/07/17 01:19:28;;;;;;;16.20;4.25;;;15.10;99.90;;;;;;4990534;28;20050;-58
2023/07/17 01:21:58;;;;;;;16.08;5.40;;;15.10;99.90;;;;;;4986344;28;20069;-54
2023/07/17 01:24:25;;;;;;;10.35;5.45;;;15.10;99.90;;;;;;4991831;28;20051;-55
2023/07/17 01:26:52;;;;;;;12.95;5.05;;;15.10;99.90;;;;;;4990729;28;20057;-54
2023/07/17 01:29:19;;;;;;;11.50;5.55;;;15.10;99.90;;;;;;4992186;28;20054;-56
2023/07/17 01:31:46;;;;;;;14.80;4.00;;;15.10;99.90;;;;;;4991098;28;20438;-55
2023/07/17 01:34:12;;;;;;;7.88;3.97;;;15.00;99.90;;;;;;4991724;28;20042;-56
2023/07/17 01:36:39;;;;;;;16.58;4.78;;;15.10;99.90;;;;;;4987059;28;20049;-55
2023/07/17 01:39:06;;;;;;;11.27;4.25;;;15.10;99.90;;;;;;4988085;28;20057;-53
2023/07/17 01:41:33;;;;;;;22.83;6.30;;;15.10;99.90;;;;;;4990957;28;20050;-56
2023/07/17 01:44:00;;;;;;;10.45;4.13;;;15.10;99.90;;;;;;4991271;28;20038;-56
2023/07/17 01:46:27;;;;;;;11.75;5.38;;;15.10;99.90;;;;;;4991069;28;20580;-56
2023/07/17 01:48:54;;;;;;;10.73;4.20;;;15.00;99.90;;;;;;4999896;28;20053;-55
2023/07/17 01:51:21;;;;;;;18.38;4.05;;;15.10;99.90;;;;;;4991073;28;20039;-55
2023/07/17 01:53:47;;;;;;;12.25;3.53;;;15.10;99.90;;;;;;4989389;28;20069;-54
2023/07/17 01:56:14;;;;;;;15.38;3.90;;;15.00;99.90;;;;;;4990731;28;20141;-55
2023/07/17 01:58:41;;;;;;;9.98;3.92;;;14.90;99.90;;;;;;4982522;28;20509;-56
2023/07/17 02:01:08;;;;;;;13.95;3.50;;;14.90;99.90;;;;;;4990876;28;20493;-51
2023/07/17 02:03:36;;;;;;;9.60;3.50;;;14.90;99.90;;;;;;4988379;28;20073;-51
2023/07/17 02:06:03;;;;;;;12.43;3.85;;;14.90;99.90;;;;;;4990072;28;20057;-55
2023/07/17 02:08:30;;;;;;;18.65;3.80;;;14.90;99.90;;;;;;4989139;28;20053;-56
2023/07/17 02:10:56;;;;;;;8.00;4.15;;;14.90;99.90;;;;;;4998025;28;20050;-52
2023/07/17 02:13:23;;;;;;;16.52;4.78;;;14.90;99.90;;;;;;4982642;28;20074;-56
2023/07/17 02:15:50;;;;;;;9.35;3.72;;;14.90;99.90;;;;;;4990368;28;20038;-56
2023/07/17 02:18:17;;;;;;;13.52;3.97;;;14.90;99.90;;;;;;4991971;28;20074;-54
2023/07/17 02:20:44;;;;;;;11.75;3.72;;;14.90;99.90;;;;;;4990401;28;20498;-54
2023/07/17 02:23:11;;;;;;;11.20;3.67;;;14.90;99.90;;;;;;4987043;28;20451;-54
2023/07/17 02:25:38;;;;;;;17.88;3.80;;;14.90;99.90;;;;;;4986606;28;20043;-56
2023/07/17 02:28:04;;;;;;;9.30;3.78;;;14.80;99.90;;;;;;4988925;28;20196;-56
2023/07/17 02:30:31;;;;;;;14.30;3.83;;;14.80;99.90;;;;;;4987392;28;20050;-57
2023/07/17 02:33:02;;;;;;;7.35;2.92;;;14.70;99.90;;;;;;4984025;28;20042;-56
2023/07/17 02:35:30;;;;;;;18.02;4.38;;;14.70;99.90;;;;;;4984700;28;20050;-55
2023/07/17 02:37:57;;;;;;;15.30;3.65;;;14.70;99.90;;;;;;4989866;28;20057;-54
2023/07/17 02:40:24;;;;;;;11.13;2.95;;;14.70;99.90;;;;;;4982614;28;20042;-55
2023/07/17 02:42:51;;;;;;;16.42;3.63;;;14.60;99.90;;;;;;4989255;28;20422;-56
2023/07/17 02:45:18;;;;;;;16.80;3.97;;;14.60;99.90;;;;;;4988011;28;20049;-55
2023/07/17 02:47:44;;;;;;;19.88;4.88;;;14.70;99.90;;;;;;4986322;28;20397;-55
2023/07/17 02:50:11;;;;;;;18.25;3.70;;;14.60;99.90;;;;;;4988560;28;20050;-57
2023/07/17 02:52:38;;;;;;;14.00;3.70;;;14.70;99.90;;;;;;4986487;28;20413;-54
2023/07/17 02:55:05;;;;;;;17.42;4.30;;;14.70;99.90;;;;;;4984674;28;20046;-56
2023/07/17 02:57:34;;;;;;;9.43;4.28;;;14.60;99.90;;;;;;4989668;28;20050;-57
2023/07/17 03:00:08;;;;;;;13.85;3.88;;;14.60;99.90;;;;;;4989201;28;20046;-55
2023/07/17 03:02:37;;;;;;;10.88;3.70;;;14.70;99.90;;;;;;4990231;28;20074;-57
2023/07/17 03:05:10;;;;;;;12.30;4.07;;;14.60;99.90;;;;;;4989813;28;20053;-53
2023/07/17 03:07:38;;;;;;;11.37;4.20;;;14.60;99.90;;;;;;4990055;28;20137;-54
2023/07/17 03:10:05;;;;;;;16.10;3.92;;;14.70;99.90;;;;;;4985708;28;20057;-57
2023/07/17 03:12:33;;;;;;;12.23;3.88;;;14.70;99.90;;;;;;4981569;28;20383;-55
2023/07/17 03:15:00;;;;;;;17.27;4.47;;;14.70;99.90;;;;;;4982531;28;20394;-57
2023/07/17 03:17:26;;;;;;;13.60;4.50;;;14.60;99.90;;;;;;4978913;28;20050;-57
2023/07/17 03:19:53;;;;;;;15.15;4.22;;;14.60;99.90;;;;;;4988684;28;20100;-56
2023/07/17 03:22:20;;;;;;;12.13;4.05;;;14.70;99.90;;;;;;4988553;28;20046;-55
2023/07/17 03:24:47;;;;;;;16.40;4.28;;;14.60;99.90;;;;;;4989348;28;20042;-54
2023/07/17 03:27:14;;;;;;;15.77;4.05;;;14.60;99.90;;;;;;4989033;28;20050;-55
2023/07/17 03:29:41;;;;;;;17.80;4.10;;;14.70;99.90;;;;;;4989469;28;20042;-53
2023/07/17 03:32:08;;;;;;;18.13;3.97;;;14.70;99.90;;;;;;4979327;28;20050;-55
2023/07/17 03:34:34;;;;;;;13.77;3.80;;;14.70;99.90;;;;;;4988738;28;20497;-55
2023/07/17 03:37:02;;;;;;;12.80;4.32;;;14.70;99.90;;;;;;4982282;28;20046;-57
2023/07/17 03:39:29;;;;;;;15.55;3.70;;;14.70;99.90;;;;;;4989415;28;20476;-57
2023/07/17 03:41:56;;;;;;;18.90;4.70;;;14.70;99.90;;;;;;4988908;28;20077;-56
2023/07/17 03:44:23;;;;;;;14.35;4.13;;;14.60;99.90;;;;;;4988062;28;20050;-54
2023/07/17 03:46:50;;;;;;;10.95;3.90;;;14.60;99.90;;;;;;4988988;28;20038;-56
2023/07/17 03:49:17;;;;;;;8.45;3.35;;;14.70;99.90;;;;;;4989502;28;20137;-52
2023/07/17 03:51:43;;;;;;;17.60;3.83;;;14.60;99.90;;;;;;4984101;28;20105;-57
2023/07/17 03:54:10;;;;;;;14.02;4.25;;;14.70;99.90;;;;;;4989246;28;20046;-54
2023/07/17 03:56:39;;;;;;;14.00;3.80;;;14.70;99.90;;;;;;4988544;28;20112;-57
2023/07/17 03:59:06;;;;;;;12.68;3.85;;;14.70;99.90;;;;;;4978764;28;20046;-59
2023/07/17 04:01:33;;;;;;;11.38;4.22;;;14.80;99.90;;;;;;4988563;28;20053;-51
2023/07/17 04:04:00;;;;;;;13.88;4.85;;;14.80;99.90;;;;;;4989207;28;20068;-58
2023/07/17 04:06:27;;;;;;;10.75;4.13;;;14.70;99.90;;;;;;4983351;28;20054;-58
2023/07/17 04:08:53;;;;;;;9.10;4.13;;;14.70;99.90;;;;;;4999898;28;20223;-56
2023/07/17 04:11:20;;;;;;;15.82;4.15;;;14.70;99.90;;;;;;4988422;28;20046;-60
2023/07/17 04:13:47;;;;;;;20.52;4.28;;;14.70;99.90;;;;;;4986151;28;20058;-56
2023/07/17 04:16:16;;;;;;;16.80;4.40;;;14.60;99.90;;;;;;4987442;28;20062;-57
2023/07/17 04:18:42;;;;;;;11.13;3.95;;;14.60;99.90;;;;;;4977299;28;20268;-56
2023/07/17 04:21:09;;;;;;;15.60;4.78;;;14.60;99.90;;;;;;4986280;28;20042;-56
2023/07/17 04:23:36;;;;;;;12.05;4.03;;;14.50;99.90;;;;;;4981315;28;20051;-54
2023/07/17 04:26:03;;;;;;;10.95;4.07;;;14.50;99.90;;;;;;4984708;28;20056;-57
2023/07/17 04:28:30;;;;;;;15.38;3.97;;;14.50;99.90;;;;;;4991057;28;20105;-53
2023/07/17 04:30:57;;;;;;;17.00;5.40;;;14.50;99.90;;;;;;4992879;28;20500;-56
2023/07/17 04:33:24;;;;;;;12.95;3.90;;;14.60;99.90;;;;;;4990978;28;20142;-52
2023/07/17 04:35:51;;;;;;;16.67;5.00;;;14.50;99.90;;;;;;4992632;28;20050;-52
2023/07/17 04:38:18;;;;;;;16.05;6.45;;;14.50;99.90;;;;;;4983528;28;20051;-55
2023/07/17 04:40:45;;;;;;;11.25;5.10;;;14.60;99.90;;;;;;4992323;28;20114;-55
2023/07/17 04:43:11;;;;;;;7.85;3.78;;;14.60;99.90;;;;;;4992319;28;20058;-57
2023/07/17 04:45:42;;;;;;;10.73;4.57;;;14.60;99.90;;;;;;4992133;28;20038;-58
2023/07/17 04:48:09;;;;;;;18.23;5.15;;;14.60;99.90;;;;;;4991829;28;20062;-56
2023/07/17 04:50:36;;;;;;;17.58;4.68;;;14.70;99.90;;;;;;4985888;28;20102;-55
2023/07/17 04:53:02;;;;;;;12.23;4.63;;;14.70;99.90;;;;;;4992243;28;20046;-57
2023/07/17 04:55:29;;;;;;;12.20;4.28;;;14.70;99.90;;;;;;4990022;28;20490;-55
2023/07/17 04:57:56;;;;;;;13.90;4.82;;;14.70;99.90;;;;;;4990491;28;20074;-56
2023/07/17 05:00:23;;;;;;;13.35;4.47;;;14.70;99.90;;;;;;4990191;28;20053;-55
2023/07/17 05:02:50;;;;;;;18.20;5.75;;;14.70;99.90;;;;;;4990236;28;20062;-54
2023/07/17 05:05:17;;;;;;;19.00;4.97;;;14.70;99.90;;;;;;4991487;28;20061;-56
2023/07/17 05:07:44;;;;;;;14.55;5.00;;;14.70;99.90;;;;;;4991700;28;20054;-51
2023/07/17 05:10:11;;;;;;;16.92;4.90;;;14.80;99.90;;;;;;4990631;28;20050;-54
2023/07/17 05:12:40;;;;;;;12.60;4.60;;;14.80;99.90;;;;;;4991970;28;20050;-55
2023/07/17 05:15:07;;;;;;;9.18;3.72;;;14.80;99.90;;;;;;4988028;28;20058;-55
2023/07/17 05:17:35;;;;;;;16.75;4.47;;;14.80;99.90;;;;;;4991680;28;20527;-55
2023/07/17 05:20:04;;;;;;;14.43;4.25;;;14.90;99.90;;;;;;4983992;28;20046;-56
2023/07/17 05:22:32;;;;;;;16.98;4.47;;;14.90;99.90;;;;;;4991827;28;20047;-54
2023/07/17 05:24:59;;;;;;;18.67;6.15;;;14.90;99.90;;;;;;4985647;28;20097;-56
2023/07/17 05:27:26;;;;;;;13.60;4.50;;;15.00;99.90;;;;;;4983444;28;20369;-54
2023/07/17 05:29:53;;;;;;;11.38;4.30;;;15.10;99.90;;;;;;4989969;28;20346;-56
2023/07/17 05:32:20;;;;;;;13.13;5.00;;;15.10;99.90;;;;;;4991682;28;20046;-57
2023/07/17 05:34:46;;;;;;;12.88;4.88;;;15.10;99.90;;;;;;4991375;28;20039;-51
2023/07/17 05:37:15;;;;;;;11.73;4.63;;;15.10;99.90;;;;;;4978942;28;20504;-54
2023/07/17 05:39:43;;;;;;;11.20;4.60;;;15.10;99.90;;;;;;4987613;28;20473;-54
2023/07/17 05:42:10;;;;;;;9.55;4.07;;;15.10;99.90;;;;;;4991279;28;20065;-53
2023/07/17 05:44:37;;;;;;;14.35;4.43;;;15.20;99.90;;;;;;4990845;28;20460;-54
2023/07/17 05:47:03;;;;;;;13.68;4.97;;;15.30;99.90;;;;;;4990792;28;20050;-54
2023/07/17 05:49:30;;;;;;;10.75;4.82;;;15.30;99.90;;;;;;4990482;28;20038;-55
2023/07/17 05:51:57;;;;;;;12.88;4.38;;;15.30;99.90;;;;;;4990909;28;20104;-56
2023/07/17 05:54:24;;;;;;;13.38;4.65;;;15.30;99.90;;;;;;4991154;28;20478;-56
2023/07/17 05:56:51;;;;;;;11.55;5.30;;;15.40;99.90;;;;;;4989383;28;20494;-55
2023/07/17 05:59:18;;;;;;;14.02;4.40;;;15.40;99.90;;;;;;5004276;28;20050;-55
2023/07/17 06:01:45;;;;;;;15.27;5.10;;;15.40;99.90;;;;;;4983699;28;20073;-56
2023/07/17 06:04:12;;;;;;;26.75;5.50;;;15.50;99.90;;;;;;4975423;28;20043;-56
2023/07/17 06:06:39;;;;;;;17.17;4.70;;;15.50;99.90;;;;;;4987292;28;20038;-56
2023/07/17 06:09:06;;;;;;;10.88;3.80;;;15.50;99.90;;;;;;4989535;28;20058;-58
2023/07/17 06:11:33;;;;;;;12.93;5.55;;;15.50;99.90;;;;;;4988916;28;20046;-56
2023/07/17 06:13:59;;;;;;;16.55;4.40;;;15.50;99.90;;;;;;4990684;28;20054;-56
2023/07/17 06:16:26;;;;;;;19.10;4.57;;;15.50;99.90;;;;;;4986692;28;20113;-56
2023/07/17 06:18:53;;;;;;;13.45;4.65;;;15.50;99.90;;;;;;4981546;28;20323;-53
2023/07/17 06:21:20;;;;;;;11.48;5.07;;;15.50;99.90;;;;;;4981871;28;20039;-56
2023/07/17 06:23:47;;;;;;;16.95;5.00;;;15.60;99.90;;;;;;4990475;28;20046;-56
2023/07/17 06:26:16;;;;;;;17.08;5.15;;;15.70;99.90;;;;;;4644122;28;9999774;-58
2023/07/17 06:28:43;;;;;;;16.67;5.25;;;15.70;99.90;;;;;;4994288;28;20046;-60
2023/07/17 06:31:10;;;;;;;13.93;4.60;;;15.80;99.90;;;;;;4985070;28;20058;-53
2023/07/17 06:33:37;;;;;;;15.45;5.10;;;15.90;99.90;;;;;;4986680;28;20054;-56
2023/07/17 06:36:04;;;;;;;15.23;4.60;;;16.00;99.90;;;;;;4986797;28;20069;-56
2023/07/17 06:38:30;;;;;;;21.48;5.00;;;16.00;99.90;;;;;;4981913;28;20077;-55
2023/07/17 06:40:57;;;;;;;10.88;4.55;;;15.90;99.90;;;;;;4984263;28;20085;-53
2023/07/17 06:43:24;;;;;;;16.23;5.00;;;16.00;99.90;;;;;;4984111;28;20054;-56
2023/07/17 06:45:51;;;;;;;10.00;4.00;;;16.00;99.90;;;;;;5001702;28;20057;-55
2023/07/17 06:48:18;;;;;;;14.77;4.40;;;16.10;99.90;;;;;;4986620;28;20050;-57
2023/07/17 06:50:45;;;;;;;13.65;4.90;;;16.10;99.90;;;;;;4984943;28;20154;-53
2023/07/17 06:53:12;;;;;;;11.52;5.07;;;16.20;99.90;;;;;;4986735;28;20058;-56
2023/07/17 06:55:39;;;;;;;8.00;3.80;;;16.20;99.90;;;;;;4973270;28;20520;-56
2023/07/17 06:58:07;;;;;;;23.65;5.40;;;16.20;99.90;;;;;;4977537;28;20065;-55
2023/07/17 07:00:34;;;;;;;6.53;3.60;;;16.30;99.90;;;;;;4987156;28;20073;-55
2023/07/17 07:03:01;;;;;;;11.30;4.28;;;16.40;99.90;;;;;;4983698;28;20489;-55
2023/07/17 07:05:28;;;;;;;13.15;3.92;;;16.50;99.90;;;;;;4986555;28;20046;-55
2023/07/17 07:07:55;;;;;;;13.63;4.68;;;16.70;99.90;;;;;;4984769;28;20047;-54
2023/07/17 07:10:22;;;;;;;13.65;4.47;;;16.70;99.90;;;;;;4975565;28;20087;-55
2023/07/17 07:12:48;;;;;;;11.00;3.95;;;16.80;99.90;;;;;;4984606;28;20050;-58
2023/07/17 07:15:15;;;;;;;19.90;4.78;;;16.80;99.90;;;;;;4986304;28;20484;-58
2023/07/17 07:17:42;;;;;;;10.32;3.90;;;16.90;99.90;;;;;;4996637;28;20053;-53
2023/07/17 07:20:10;;;;;;;10.20;3.70;;;17.00;99.90;;;;;;4983818;28;20085;-57
2023/07/17 07:22:37;;;;;;;9.60;3.45;;;17.00;99.90;;;;;;4984707;28;20070;-58
2023/07/17 07:25:04;;;;;;;8.60;3.38;;;17.10;99.90;;;;;;4986181;28;20046;-57
2023/07/17 07:27:31;;;;;;;15.55;4.35;;;17.30;99.90;;;;;;4986172;28;20054;-55
2023/07/17 07:29:58;;;;;;;10.02;3.05;;;17.50;99.90;;;;;;4985790;28;20053;-56
2023/07/17 07:32:25;;;;;;;9.18;3.67;;;17.60;99.90;;;;;;4967713;28;20058;-57
2023/07/17 07:34:52;;;;;;;12.30;3.75;;;17.60;99.90;;;;;;4976365;28;20518;-57
2023/07/17 07:37:19;;;;;;;14.15;3.60;;;17.60;99.90;;;;;;4982354;28;20054;-55
2023/07/17 07:39:46;;;;;;;8.57;2.83;;;17.60;99.90;;;;;;4985269;28;20347;-55
2023/07/17 07:42:13;;;;;;;5.55;2.28;;;17.60;99.90;;;;;;4988146;28;20526;-57
2023/07/17 07:44:40;;;;;;;9.70;2.55;;;17.70;99.90;;;;;;4982616;28;20038;-56
2023/07/17 07:47:07;;;;;;;8.82;3.42;;;17.80;99.90;;;;;;4987992;28;20053;-56
2023/07/17 07:49:34;;;;;;;6.47;3.45;;;17.90;99.90;;;;;;4985480;28;20077;-57
2023/07/17 07:52:00;;;;;;;10.68;3.28;;;17.90;99.90;;;;;;4988338;28;20052;-56
2023/07/17 07:54:27;;;;;;;7.75;2.80;;;17.90;99.90;;;;;;4981741;28;20054;-56
2023/07/17 07:56:54;;;;;;;7.78;2.95;;;17.80;99.90;;;;;;4986803;28;20042;-56
2023/07/17 07:59:21;;;;;;;10.10;3.00;;;17.80;99.90;;;;;;4987623;28;20054;-54
2023/07/17 08:01:48;;;;;;;8.10;3.03;;;17.90;99.90;;;;;;4987734;28;20057;-55
2023/07/17 08:04:15;;;;;;;14.32;2.92;;;17.90;99.90;;;;;;4985853;28;20046;-55
2023/07/17 08:06:42;;;;;;;10.90;2.25;;;17.90;99.90;;;;;;4988048;28;20117;-56
2023/07/17 08:09:09;;;;;;;8.75;2.85;;;18.00;99.90;;;;;;4988241;28;20065;-56
2023/07/17 08:11:36;;;;;;;7.80;2.67;;;18.10;99.90;;;;;;4987298;28;20054;-57
2023/07/17 08:14:03;;;;;;;8.40;2.80;;;18.10;99.90;;;;;;4988127;28;20398;-57
2023/07/17 08:16:30;;;;;;;5.88;2.60;;;18.10;99.90;;;;;;4988063;28;20525;-56
2023/07/17 08:18:56;;;;;;;8.45;3.20;;;18.20;99.90;;;;;;4971014;28;20054;-57
2023/07/17 08:21:23;;;;;;;8.98;3.50;;;18.30;99.90;;;;;;4981119;28;20134;-55
2023/07/17 08:23:50;;;;;;;8.65;2.33;;;18.30;99.90;;;;;;4984895;28;20054;-58
2023/07/17 08:26:17;;;;;;;8.65;3.03;;;18.40;99.90;;;;;;4983036;28;20049;-56
2023/07/17 08:28:44;;;;;;;10.38;2.35;;;18.40;99.90;;;;;;4989030;28;20046;-57
2023/07/17 08:31:11;;;;;;;7.43;2.22;;;18.50;99.90;;;;;;4986534;28;20062;-57
2023/07/17 08:33:38;;;;;;;10.48;3.17;;;18.50;99.90;;;;;;4988618;28;20042;-57
2023/07/17 08:36:05;;;;;;;7.32;2.75;;;18.60;99.90;;;;;;4989181;28;20053;-58
2023/07/17 08:38:32;;;;;;;5.25;2.20;;;18.70;99.90;;;;;;4988926;28;20129;-57
2023/07/17 08:40:59;;;;;;;6.97;2.08;;;18.70;99.90;;;;;;4985217;28;20053;-57
2023/07/17 08:43:27;;;;;;;7.43;2.80;;;18.70;99.90;;;;;;4981679;28;20058;-53
2023/07/17 08:45:54;;;;;;;6.55;2.10;;;18.80;99.90;;;;;;4976204;28;20043;-54
2023/07/17 08:48:23;;;;;;;5.30;2.25;;;19.00;99.90;;;;;;4983887;28;20178;-55
2023/07/17 08:50:51;;;;;;;5.63;2.22;;;19.00;99.90;;;;;;4984667;28;20500;-54
2023/07/17 08:53:18;;;;;;;8.50;1.70;;;19.10;99.90;;;;;;4981021;28;20046;-53
2023/07/17 08:55:45;;;;;;;4.65;1.88;;;19.20;99.90;;;;;;4986546;28;20039;-50
2023/07/17 08:58:12;;;;;;;6.55;1.73;;;19.20;99.90;;;;;;4986220;28;20272;-55
2023/07/17 09:00:39;;;;;;;9.77;2.75;;;19.20;99.90;;;;;;4971818;28;20493;-55
2023/07/17 09:03:06;;;;;;;3.30;2.03;;;19.20;99.90;;;;;;4984888;28;20063;-55
2023/07/17 09:05:33;;;;;;;6.63;1.55;;;19.10;99.90;;;;;;4988469;28;20050;-53
2023/07/17 09:08:00;;;;;;;4.97;1.77;;;19.00;99.90;;;;;;4980055;28;20078;-57
2023/07/17 09:10:27;;;;;;;5.20;1.75;;;19.00;99.90;;;;;;4985271;28;20421;-56
2023/07/17 09:12:58;;;;;;;10.77;2.92;;;19.00;99.90;;;;;;4982405;28;20046;-55
2023/07/17 09:15:26;;;;;;;6.18;2.20;;;19.00;99.90;;;;;;4991223;28;20046;-57
2023/07/17 09:17:53;;;;;;;12.45;2.60;;;19.20;99.90;;;;;;4984243;28;20061;-59
2023/07/17 09:20:20;;;;;;;7.43;1.58;;;19.10;99.90;;;;;;4978219;28;20078;-58
2023/07/17 09:22:47;;;;;;;3.30;1.60;;;18.70;99.90;;;;;;4981292;28;20413;-55
2023/07/17 09:25:15;;;;;;;3.83;1.15;;;18.50;99.90;;;;;;4982793;28;20053;-56
2023/07/17 09:27:45;;;;;;;4.03;1.33;;;18.10;99.90;;;;;;4984931;28;20074;-55
2023/07/17 09:30:13;;;;;;;3.15;1.10;;;17.80;99.90;;;;;;4980637;28;20058;-52
2023/07/17 09:32:40;;;;;;;7.85;1.77;;;17.50;99.90;;;;;;4989466;28;20046;-56
2023/07/17 09:35:08;;;;;;;4.07;2.38;;;17.50;99.90;;;;;;4980375;28;20086;-56
2023/07/17 09:37:35;;;;;;;7.65;1.88;;;17.50;99.90;;;;;;4986170;28;20414;-54
2023/07/17 09:40:12;;;;;;;4.38;1.65;;;17.50;99.90;;;;;;4991039;28;20120;-56
2023/07/17 09:42:41;;;;;;;4.18;1.83;;;17.50;99.90;;;;;;4990475;28;20290;-56
2023/07/17 09:45:08;;;;;;;5.43;1.98;;;17.60;99.90;;;;;;4986105;28;20097;-55
2023/07/17 09:47:35;;;;;;;13.27;2.22;;;17.80;99.90;;;;;;4974180;28;20695;-55
2023/07/17 09:50:03;;;;;;;6.40;2.10;;;17.90;99.90;;;;;;4978889;28;20050;-56
2023/07/17 09:52:31;;;;;;;11.82;2.25;;;18.00;99.90;;;;;;4988471;28;20045;-55
2023/07/17 09:55:00;;;;;;;8.15;2.00;;;18.00;99.90;;;;;;4990940;28;20054;-55
2023/07/17 09:57:38;;;;;;;6.70;2.22;;;18.20;99.90;;;;;;4974538;28;20061;-58
2023/07/17 10:00:18;;;;;;;16.52;2.60;;;18.50;99.90;;;;;;4986201;28;20050;-56
2023/07/17 10:03:13;;;;;;;6.70;1.83;;;18.80;99.90;;;;;;4978497;28;20042;-57
2023/07/17 10:05:40;;;;;;;6.38;1.45;;;19.10;99.90;;;;;;4985210;28;20330;-61
2023/07/17 10:08:07;;;;;;;4.55;2.05;;;19.40;99.90;;;;;;4990316;28;20046;-56
2023/07/17 10:10:36;;;;;;;10.45;2.50;;;19.70;99.90;;;;;;4976863;28;20062;-55
2023/07/17 10:13:02;;;;;;;3.90;1.20;;;20.20;99.90;;;;;;4990606;28;20133;-54
2023/07/17 10:15:29;;;;;;;5.45;1.88;;;20.30;99.90;;;;;;4985417;28;20058;-58
2023/07/17 10:17:57;;;;;;;10.13;2.30;;;20.00;99.90;;;;;;5005255;28;20390;-58
2023/07/17 10:20:33;;;;;;;7.03;2.28;;;19.60;99.90;;;;;;4979127;28;20449;-58
2023/07/17 10:23:01;;;;;;;5.85;1.45;;;19.10;99.90;;;;;;4988164;28;20050;-57
2023/07/17 10:25:28;;;;;;;6.05;1.67;;;18.40;99.90;;;;;;4985556;28;20050;-59
2023/07/17 10:27:57;;;;;;;6.05;2.15;;;17.80;99.90;;;;;;4990457;28;20415;-59
2023/07/17 10:30:31;;;;;;;5.28;1.80;;;17.40;99.90;;;;;;4981531;28;20309;-56
2023/07/17 10:33:16;;;;;;;7.60;1.92;;;17.40;99.90;;;;;;4990320;28;20504;-56
2023/07/17 10:35:55;;;;;;;5.45;1.40;;;17.70;99.90;;;;;;4982669;28;20469;-55
2023/07/17 10:38:25;;;;;;;9.02;2.30;;;17.80;99.90;;;;;;4986469;28;20078;-54
2023/07/17 10:41:05;;;;;;;5.38;1.55;;;17.80;99.90;;;;;;4982437;28;20066;-56
2023/07/17 10:43:33;;;;;;;4.88;1.42;;;17.80;99.90;;;;;;4990170;28;20050;-57
2023/07/17 10:46:00;;;;;;;4.88;1.30;;;17.70;99.90;;;;;;4987376;28;20046;-57
2023/07/17 10:48:33;;;;;;;5.88;1.88;;;18.10;99.90;;;;;;4988826;28;20351;-57
2023/07/17 10:51:00;;;;;;;2.63;1.15;;;18.60;99.90;;;;;;4984673;28;20509;-55
2023/07/17 10:53:26;;;;;;;6.13;1.92;;;19.10;99.90;;;;;;4989857;28;20676;-58
2023/07/17 10:55:54;;;;;;;2.67;1.20;;;19.30;99.90;;;;;;4988093;28;20042;-58
2023/07/17 10:58:21;;;;;;;6.22;1.10;;;19.30;99.90;;;;;;4987868;28;20070;-54
2023/07/17 11:00:48;;;;;;;3.17;1.38;;;19.30;99.90;;;;;;4986021;28;20046;-57
2023/07/17 11:03:16;;;;;;;3.63;1.73;;;19.30;99.90;;;;;;4989633;28;20058;-53
2023/07/17 11:05:44;;;;;;;12.48;1.75;;;19.40;99.90;;;;;;4984943;28;20069;-55
2023/07/17 11:08:14;;;;;;;4.25;1.17;;;19.40;99.90;;;;;;4988195;28;20138;-53
2023/07/17 11:10:44;;;;;;;2.60;1.65;;;19.10;99.90;;;;;;4989075;28;20054;-56
2023/07/17 11:13:11;;;;;;;5.03;2.17;;;19.10;99.90;;;;;;4980917;28;20050;-58
2023/07/17 11:15:38;;;;;;;4.10;1.27;;;19.00;99.90;;;;;;4974605;28;20074;-57
2023/07/17 11:18:07;;;;;;;6.90;1.48;;;19.00;99.90;;;;;;4982705;28;20055;-56
2023/07/17 11:20:35;;;;;;;4.40;1.50;;;19.10;99.90;;;;;;4971971;28;20077;-58
2023/07/17 11:23:03;;;;;;;9.10;1.85;;;19.10;99.90;;;;;;4988322;28;20134;-57
2023/07/17 11:25:32;;;;;;;2.22;1.00;;;19.20;99.90;;;;;;4989322;28;20046;-56
2023/07/17 11:27:59;;;;;;;5.40;1.40;;;19.20;99.90;;;;;;4988352;28;20047;-57
2023/07/17 11:30:27;;;;;;;9.38;1.50;;;19.30;99.90;;;;;;4988092;28;20840;-56
2023/07/17 11:33:15;;;;;;;6.60;1.25;;;19.40;99.90;;;;;;4989143;28;20050;-54
2023/07/17 11:35:47;;;;;;;1.75;1.02;;;19.60;99.90;;;;;;4973812;28;20042;-56
2023/07/17 11:38:15;;;;;;;3.47;1.40;;;19.60;99.90;;;;;;4982025;28;20049;-57
2023/07/17 11:40:55;;;;;;;3.25;1.27;;;19.70;99.90;;;;;;4989005;28;20068;-54
2023/07/17 11:43:30;;;;;;;8.60;1.05;;;19.70;99.90;;;;;;4986470;28;20050;-56
2023/07/17 11:46:01;;;;;;;2.55;0.95;;;19.70;99.90;;;;;;4988349;28;20042;-54
2023/07/17 11:48:33;;;;;;;6.07;1.27;;;19.80;99.90;;;;;;4977619;28;20053;-56
2023/07/17 11:51:04;;;;;;;2.88;0.80;;;20.00;99.90;;;;;;4986940;28;20049;-53
2023/07/17 11:53:32;;;;;;;3.47;0.80;;;20.10;99.90;;;;;;4987815;28;20545;-57
2023/07/17 11:55:59;;;;;;;5.82;1.00;;;20.20;99.90;;;;;;4997895;28;20137;-55
2023/07/17 11:58:29;;;;;;;2.55;1.20;;;20.40;99.90;;;;;;4981675;28;20050;-56
2023/07/17 12:00:56;;;;;;;3.45;0.85;;;20.50;99.90;;;;;;4987770;28;20054;-56
2023/07/17 12:03:23;;;;;;;5.15;1.63;;;20.50;99.90;;;;;;4980977;28;20058;-56
2023/07/17 12:05:50;;;;;;;2.22;1.00;;;20.50;99.90;;;;;;4981876;28;20054;-55
2023/07/17 12:08:17;;;;;;;3.35;1.00;;;20.60;99.90;;;;;;4986252;28;20096;-58
2023/07/17 12:10:44;;;;;;;3.33;1.15;;;20.70;99.90;;;;;;4988774;28;20054;-57
2023/07/17 12:13:11;;;;;;;6.20;1.33;;;20.80;99.90;;;;;;4984320;28;20054;-57
2023/07/17 12:15:38;;;;;;;2.28;0.90;;;20.90;99.90;;;;;;4987945;28;20047;-55
2023/07/17 12:18:04;;;;;;;4.40;0.82;;;21.00;99.90;;;;;;4986772;28;20133;-53
2023/07/17 12:20:32;;;;;;;2.92;0.60;;;21.00;99.90;;;;;;4977991;28;20101;-57
2023/07/17 12:22:59;;;;;;;2.35;0.93;;;21.10;99.90;;;;;;4984844;28;20137;-56
2023/07/17 12:25:28;;;;;;;4.22;1.00;;;21.30;99.90;;;;;;4984898;28;20143;-60
2023/07/17 12:27:58;;;;;;;4.45;1.45;;;21.40;99.90;;;;;;4971204;28;20123;-55
2023/07/17 12:30:25;;;;;;;3.20;0.90;;;21.60;99.90;;;;;;4975088;28;20050;-55
2023/07/17 12:32:52;;;;;;;2.50;0.90;;;21.70;99.90;;;;;;4988422;28;20043;-57
2023/07/17 12:35:18;;;;;;;3.33;0.90;;;21.60;99.90;;;;;;4981291;28;20055;-56
2023/07/17 12:37:45;;;;;;;2.67;0.75;;;21.60;99.90;;;;;;4976829;28;20511;-57
2023/07/17 12:40:12;;;;;;;1.42;0.77;;;21.50;99.90;;;;;;4988550;28;20058;-56
2023/07/17 12:42:39;;;;;;;4.20;0.90;;;21.50;99.90;;;;;;4988268;28;20363;-55